Time;durP1;ratioP1;P1;durP2;ratioP2;P2;SDS_P1;SDS_P2;PMS_P1;PMS_P2;Temp;Humidity;BMP_temperature;BMP_pressure;BME280_temperature;BME280_humidity;BME280_pressure;Samples;Min_cycle;Max_cycle;Signal;HPM_P1;HPM_P2
2021/05/10 00:00:25;;;;;;;3.38;2.20;;;;;;;16.13;100.00;99882.88;5223546;28;20024;-80
2021/05/10 00:02:56;;;;;;;3.78;2.17;;;;;;;16.13;100.00;99873.94;5225377;28;20017;-79
2021/05/10 00:05:26;;;;;;;3.28;2.40;;;;;;;16.07;100.00;99872.97;5225092;28;20060;-79
2021/05/10 00:07:57;;;;;;;4.55;1.98;;;;;;;16.03;100.00;99880.69;5225298;28;20040;-79
2021/05/10 00:10:27;;;;;;;4.07;2.40;;;;;;;16.00;100.00;99873.00;5224488;28;20041;-79
2021/05/10 00:12:58;;;;;;;5.43;2.45;;;;;;;15.99;100.00;99882.19;5207013;28;20394;-79
2021/05/10 00:15:30;;;;;;;5.07;2.53;;;;;;;15.94;100.00;99870.41;5225082;28;20474;-79
2021/05/10 00:18:03;;;;;;;6.55;2.45;;;;;;;15.95;100.00;99875.56;5224955;28;20056;-79
2021/05/10 00:20:36;;;;;;;7.18;2.38;;;;;;;15.85;100.00;99869.03;5211484;28;20021;-79
2021/05/10 00:23:06;;;;;;;3.00;2.70;;;;;;;15.91;100.00;99863.53;5224440;28;20021;-79
2021/05/10 00:25:38;;;;;;;5.40;2.90;;;;;;;15.85;100.00;99867.16;5224875;28;20067;-78
2021/05/10 00:28:08;;;;;;;5.75;2.83;;;;;;;15.75;100.00;99859.56;5224671;28;20025;-79
2021/05/10 00:30:40;;;;;;;4.25;2.20;;;;;;;15.72;100.00;99849.19;5224334;28;20437;-79
2021/05/10 00:33:10;;;;;;;4.85;2.42;;;;;;;15.72;100.00;99835.69;5224613;28;20367;-79
2021/05/10 00:35:41;;;;;;;4.93;2.70;;;;;;;15.74;100.00;99828.16;5224478;28;20036;-79
2021/05/10 00:38:11;;;;;;;8.68;2.00;;;;;;;15.84;100.00;99819.53;5224653;28;20019;-78
2021/05/10 00:40:42;;;;;;;5.93;2.50;;;;;;;15.90;100.00;99826.72;5224155;28;20029;-79
2021/05/10 00:43:12;;;;;;;3.63;2.00;;;;;;;16.15;100.00;99815.81;5224190;28;20024;-78
2021/05/10 00:45:43;;;;;;;4.10;1.73;;;;;;;16.39;100.00;99816.75;5224507;28;20029;-79
2021/05/10 00:48:14;;;;;;;2.85;1.92;;;;;;;16.53;100.00;99798.47;5224560;28;20459;-79
2021/05/10 00:50:44;;;;;;;3.05;1.70;;;;;;;16.70;100.00;99769.66;5224058;28;20490;-79
2021/05/10 00:53:15;;;;;;;5.63;2.20;;;;;;;16.68;100.00;99768.25;5224365;28;20025;-78
2021/05/10 00:55:45;;;;;;;3.92;2.15;;;;;;;16.68;100.00;99777.19;5224346;28;20036;-79
2021/05/10 00:58:16;;;;;;;5.65;2.30;;;;;;;16.61;100.00;99784.56;5218660;28;20025;-79
2021/05/10 01:00:46;;;;;;;6.55;2.53;;;;;;;16.52;100.00;99780.56;5206207;28;20762;-79
2021/05/10 01:03:17;;;;;;;3.72;2.08;;;;;;;16.48;100.00;99776.66;5224477;28;20021;-78
2021/05/10 01:05:47;;;;;;;5.05;2.40;;;;;;;16.41;100.00;99781.34;5224240;28;20607;-79
2021/05/10 01:08:18;;;;;;;5.90;2.30;;;;;;;16.34;100.00;99767.91;5224575;28;20029;-79
2021/05/10 01:10:49;;;;;;;5.97;2.30;;;;;;;16.26;100.00;99765.50;5224310;28;20035;-79
2021/05/10 01:13:20;;;;;;;5.15;2.33;;;;;;;16.19;100.00;99768.31;5228334;28;20029;-79
2021/05/10 01:15:52;;;;;;;4.10;2.45;;;;;;;16.13;100.00;99769.25;5228824;28;20462;-79
2021/05/10 01:18:22;;;;;;;5.50;2.63;;;;;;;16.07;100.00;99761.22;5228695;28;20028;-79
2021/05/10 01:20:54;;;;;;;5.75;2.40;;;;;;;15.99;100.00;99755.06;5228260;28;20394;-79
2021/05/10 01:23:25;;;;;;;4.10;2.30;;;;;;;15.93;100.00;99764.09;5228158;28;20025;-78
2021/05/10 01:25:57;;;;;;;4.88;2.38;;;;;;;15.86;100.00;99768.72;5228500;28;20090;-79
2021/05/10 01:28:27;;;;;;;5.47;2.60;;;;;;;15.75;100.00;99759.50;5228526;28;20025;-78
2021/05/10 01:30:58;;;;;;;4.95;2.40;;;;;;;15.66;100.00;99754.63;5227905;28;20036;-79
2021/05/10 01:33:29;;;;;;;6.35;2.60;;;;;;;15.68;100.00;99752.53;5228174;28;20474;-79
2021/05/10 01:36:00;;;;;;;3.53;2.53;;;;;;;15.67;100.00;99743.59;5210282;28;20467;-79
2021/05/10 01:38:30;;;;;;;5.32;2.88;;;;;;;15.69;100.00;99732.56;5228280;28;20079;-79
2021/05/10 01:41:01;;;;;;;4.88;2.53;;;;;;;15.60;100.00;99734.69;5227661;28;20055;-79
2021/05/10 01:43:34;;;;;;;4.20;2.28;;;;;;;15.44;100.00;99735.31;5228254;28;20028;-78
2021/05/10 01:46:05;;;;;;;4.07;2.33;;;;;;;15.23;100.00;99736.56;5226943;28;20032;-79
2021/05/10 01:48:36;;;;;;;4.95;3.20;;;;;;;15.03;100.00;99728.66;5228000;28;20037;-79
2021/05/10 01:51:06;;;;;;;6.82;2.97;;;;;;;14.96;100.00;99720.63;5228004;28;20025;-79
2021/05/10 01:53:37;;;;;;;5.20;3.05;;;;;;;14.79;100.00;99726.81;5233926;28;20083;-79
2021/05/10 01:56:08;;;;;;;5.43;3.05;;;;;;;14.58;100.00;99723.44;5197004;28;20470;-79
2021/05/10 01:58:39;;;;;;;6.03;2.92;;;;;;;14.48;100.00;99725.81;5226592;28;20486;-79
2021/05/10 02:01:09;;;;;;;7.30;3.03;;;;;;;14.43;100.00;99725.59;5227393;28;20033;-79
2021/05/10 02:03:40;;;;;;;4.32;2.60;;;;;;;14.50;100.00;99724.53;5226471;28;20064;-79
2021/05/10 02:06:11;;;;;;;5.88;2.42;;;;;;;14.69;100.00;99713.81;5227727;28;20028;-79
2021/05/10 02:08:44;;;;;;;5.38;2.45;;;;;;;15.02;100.00;99724.31;5227642;28;20039;-79
2021/05/10 02:11:14;;;;;;;3.80;1.90;;;;;;;15.57;100.00;99728.94;5226904;28;20031;-79
2021/05/10 02:13:46;;;;;;;5.03;2.30;;;;;;;15.98;100.00;99717.41;5227306;28;20405;-79
2021/05/10 02:16:16;;;;;;;5.43;2.08;;;;;;;16.35;100.00;99723.53;5227629;28;20528;-79
2021/05/10 02:18:47;;;;;;;4.43;1.75;;;;;;;16.56;100.00;99725.69;5227280;28;20028;-79
2021/05/10 02:21:19;;;;;;;4.47;1.70;;;;;;;16.79;100.00;99729.53;5226874;28;20460;-79
2021/05/10 02:23:49;;;;;;;2.72;1.70;;;;;;;16.97;100.00;99721.31;5209127;28;20041;-79
2021/05/10 02:26:20;;;;;;;4.85;2.03;;;;;;;17.13;100.00;99737.94;5227234;28;20470;-79
2021/05/10 02:28:50;;;;;;;5.88;1.80;;;;;;;17.17;100.00;99739.09;5227414;28;20057;-79
2021/05/10 02:31:21;;;;;;;4.28;1.58;;;;;;;17.21;100.00;99730.25;5226629;28;20116;-79
2021/05/10 02:33:51;;;;;;;7.60;1.83;;;;;;;17.30;100.00;99739.66;5227172;28;20020;-79
2021/05/10 02:36:21;;;;;;;3.33;1.70;;;;;;;17.37;100.00;99739.56;5227125;28;20094;-78
2021/05/10 02:38:52;;;;;;;4.80;1.73;;;;;;;17.41;100.00;99743.44;5227130;28;20496;-79
2021/05/10 02:41:22;;;;;;;6.47;2.30;;;;;;;17.48;100.00;99743.31;5226451;28;20593;-79
2021/05/10 02:43:53;;;;;;;4.43;1.85;;;;;;;17.49;100.00;99744.97;5226983;28;20470;-79
2021/05/10 02:46:23;;;;;;;6.13;1.58;;;;;;;17.65;100.00;99754.25;5227148;28;20025;-79
2021/05/10 02:48:54;;;;;;;3.47;1.90;;;;;;;17.63;100.00;99749.06;5226569;28;20121;-80
2021/05/10 02:51:24;;;;;;;2.05;1.70;;;;;;;17.69;100.00;99753.53;5226288;28;20094;-79
2021/05/10 02:53:55;;;;;;;7.78;1.60;;;;;;;17.74;100.00;99748.25;5224720;28;20027;-79
2021/05/10 02:56:25;;;;;;;3.10;1.88;;;;;;;17.77;100.00;99760.50;5225843;28;20044;-79
2021/05/10 02:58:56;;;;;;;5.10;2.05;;;;;;;17.95;100.00;99754.91;5226725;28;20063;-79
2021/05/10 03:01:27;;;;;;;4.85;1.88;;;;;;;18.02;100.00;99762.91;5226296;28;20096;-79
2021/05/10 03:03:57;;;;;;;6.65;2.10;;;;;;;18.07;100.00;99773.84;5226379;28;20021;-79
2021/05/10 03:06:28;;;;;;;4.82;2.20;;;;;;;17.99;100.00;99782.38;5226573;28;20035;-79
2021/05/10 03:08:58;;;;;;;4.90;2.20;;;;;;;18.04;100.00;99768.94;5226426;28;20029;-79
2021/05/10 03:11:29;;;;;;;7.07;2.00;;;;;;;18.06;100.00;99793.91;5226327;28;20033;-79
2021/05/10 03:13:59;;;;;;;4.53;1.70;;;;;;;18.14;100.00;99790.84;5226197;28;20025;-79
2021/05/10 03:16:30;;;;;;;3.97;2.00;;;;;;;18.11;100.00;99792.13;5226468;28;20599;-79
2021/05/10 03:19:03;;;;;;;4.60;2.20;;;;;;;18.10;100.00;99819.53;5226466;28;20025;-79
2021/05/10 03:21:33;;;;;;;6.22;2.22;;;;;;;18.17;100.00;99812.03;5226839;28;20509;-79
2021/05/10 03:24:06;;;;;;;4.35;2.15;;;;;;;18.12;100.00;99836.38;5225194;28;20021;-79
2021/05/10 03:26:38;;;;;;;4.55;2.00;;;;;;;18.13;100.00;99840.75;5226382;28;20489;-79
2021/05/10 03:29:09;;;;;;;3.97;2.05;;;;;;;18.14;100.00;99847.00;5226403;28;20498;-79
2021/05/10 03:31:39;;;;;;;8.85;2.63;;;;;;;18.11;100.00;99867.31;5226573;28;20433;-79
2021/05/10 03:34:10;;;;;;;8.80;2.60;;;;;;;18.07;100.00;99872.41;5225869;28;20036;-79
2021/05/10 03:36:40;;;;;;;4.55;2.40;;;;;;;18.05;100.00;99885.38;5226130;28;20398;-79
2021/05/10 03:39:11;;;;;;;5.25;2.63;;;;;;;17.92;100.00;99892.94;5226190;28;20067;-79
2021/05/10 03:41:41;;;;;;;4.78;2.45;;;;;;;17.74;100.00;99897.44;5226220;28;20080;-79
2021/05/10 03:44:12;;;;;;;6.05;2.15;;;;;;;17.54;100.00;99924.06;5226074;28;20032;-79
2021/05/10 03:46:42;;;;;;;6.20;2.40;;;;;;;17.32;100.00;99929.22;5226470;28;20031;-79
2021/05/10 03:49:13;;;;;;;7.57;2.38;;;;;;;17.06;100.00;99923.09;5225755;28;20441;-79
2021/05/10 03:51:43;;;;;;;7.68;1.90;;;;;;;16.87;100.00;99932.38;5225641;28;20028;-79
2021/05/10 03:54:14;;;;;;;5.20;1.60;;;;;;;16.70;100.00;99928.59;5225354;28;20103;-79
2021/05/10 03:56:44;;;;;;;3.15;1.30;;;;;;;16.51;100.00;99925.91;5225655;28;20028;-79
2021/05/10 03:59:15;;;;;;;5.60;1.80;;;;;;;16.32;100.00;99932.41;5225183;28;20021;-78
2021/05/10 04:01:45;;;;;;;3.97;1.23;;;;;;;16.16;100.00;99909.47;5225181;28;20024;-79
2021/05/10 04:04:22;;;;;;;3.90;1.40;;;;;;;16.08;100.00;99871.06;5225634;28;20063;-79
2021/05/10 04:09:42;;;;;;;2.13;1.55;;;;;;;15.82;100.00;99873.03;5225069;28;20036;-78
2021/05/10 04:15:02;;;;;;;2.95;1.50;;;;;;;15.49;100.00;99940.88;5225066;28;20040;-79
2021/05/10 04:17:32;;;;;;;2.80;1.50;;;;;;;15.45;100.00;99945.06;5225182;28;20029;-79
2021/05/10 04:20:03;;;;;;;5.95;1.98;;;;;;;15.43;100.00;99931.78;5224592;28;20021;-79
2021/05/10 04:22:33;;;;;;;4.38;1.83;;;;;;;15.25;100.00;99902.81;5224760;28;20021;-78
2021/05/10 04:25:06;;;;;;;2.80;2.03;;;;;;;15.13;100.00;99855.94;5225314;28;20036;-79
2021/05/10 04:27:36;;;;;;;4.47;1.90;;;;;;;15.25;100.00;99896.56;5225207;28;20029;-79
2021/05/10 04:30:08;;;;;;;6.75;2.10;;;;;;;15.16;100.00;99919.50;5224604;28;20028;-79
2021/05/10 04:32:38;;;;;;;3.65;1.60;;;;;;;15.11;100.00;99928.28;5224629;28;20433;-79
2021/05/10 04:35:09;;;;;;;8.93;2.40;;;;;;;15.02;100.00;99918.78;5224819;28;20025;-79
2021/05/10 04:37:40;;;;;;;5.38;1.73;;;;;;;15.03;100.00;99901.53;5224687;28;20067;-78
2021/05/10 04:40:11;;;;;;;4.45;1.80;;;;;;;14.99;100.00;99944.34;5224498;28;20021;-79
2021/05/10 04:42:41;;;;;;;5.10;1.70;;;;;;;14.95;100.00;99955.78;5224339;28;20036;-78
2021/05/10 04:45:12;;;;;;;4.35;1.40;;;;;;;14.93;100.00;99984.91;5224228;28;20032;-78
2021/05/10 04:47:46;;;;;;;2.70;1.17;;;;;;;14.96;100.00;100006.91;5224193;28;20024;-79
2021/05/10 04:50:16;;;;;;;2.28;1.00;;;;;;;15.02;100.00;100021.41;5224171;28;20025;-78
2021/05/10 04:52:47;;;;;;;1.88;0.90;;;;;;;15.01;100.00;100022.47;5224312;28;20036;-79
2021/05/10 04:55:17;;;;;;;2.90;0.98;;;;;;;15.03;100.00;100023.91;5224474;28;20074;-79
2021/05/10 04:57:48;;;;;;;1.85;1.00;;;;;;;15.03;100.00;100034.69;5224491;28;20063;-78
2021/05/10 05:00:19;;;;;;;3.53;0.98;;;;;;;15.02;100.00;100051.97;5224147;28;20086;-78
2021/05/10 05:02:49;;;;;;;2.85;0.88;;;;;;;14.99;100.00;100063.19;5224554;28;20552;-78
2021/05/10 05:05:20;;;;;;;1.75;0.90;;;;;;;15.05;100.00;100064.19;5224482;28;20017;-78
2021/05/10 05:07:50;;;;;;;2.92;1.00;;;;;;;14.98;100.00;100077.72;5224444;28;20036;-78
2021/05/10 05:10:21;;;;;;;1.80;1.10;;;;;;;14.96;100.00;100076.28;5224040;28;20482;-78
2021/05/10 05:12:51;;;;;;;3.33;0.98;;;;;;;15.01;100.00;100084.59;5224126;28;20394;-78
2021/05/10 05:15:22;;;;;;;3.55;0.80;;;;;;;14.97;100.00;100073.38;5224857;28;20040;-79
2021/05/10 05:17:53;;;;;;;1.13;0.85;;;;;;;15.03;100.00;100067.13;5211855;28;20029;-78
2021/05/10 05:20:23;;;;;;;1.75;0.73;;;;;;;15.13;100.00;100061.25;5224519;28;20025;-79
2021/05/10 05:22:53;;;;;;;1.23;0.90;;;;;;;15.05;100.00;100068.75;5224356;28;20035;-78
2021/05/10 05:25:24;;;;;;;1.88;1.20;;;;;;;15.10;100.00;100074.34;5224297;28;20385;-79
2021/05/10 05:27:54;;;;;;;1.98;0.90;;;;;;;15.11;100.00;100079.56;5224275;28;20112;-79
2021/05/10 05:30:25;;;;;;;2.65;1.23;;;;;;;15.22;100.00;100086.16;5224023;28;20032;-79
2021/05/10 05:32:55;;;;;;;4.47;1.58;;;;;;;15.28;100.00;100096.94;5223988;28;20482;-80
2021/05/10 05:35:26;;;;;;;2.05;1.05;;;;;;;15.25;100.00;100107.34;5224147;28;20027;-79
2021/05/10 05:37:56;;;;;;;2.28;1.13;;;;;;;15.29;100.00;100128.31;5224141;28;20099;-79
2021/05/10 05:40:27;;;;;;;2.58;1.00;;;;;;;15.23;100.00;100128.34;5224014;28;20115;-79
2021/05/10 05:42:57;;;;;;;1.10;1.00;;;;;;;15.16;100.00;100131.09;5223829;28;20041;-79
2021/05/10 05:45:28;;;;;;;3.78;1.30;;;;;;;15.15;100.00;100128.56;5224295;28;20479;-79
2021/05/10 05:47:58;;;;;;;1.50;1.08;;;;;;;15.24;100.00;100100.28;5224401;28;20385;-78
2021/05/10 05:50:28;;;;;;;2.20;1.20;;;;;;;15.27;100.00;100106.09;5224543;28;20017;-78
2021/05/10 05:52:59;;;;;;;1.77;1.00;;;;;;;15.36;100.00;100116.63;5224624;28;20060;-79
2021/05/10 05:55:30;;;;;;;2.58;1.20;;;;;;;15.41;100.00;100120.38;5224194;28;20498;-79
2021/05/10 05:58:02;;;;;;;2.80;0.90;;;;;;;15.54;100.00;100117.59;5221155;28;20024;-79
2021/05/10 06:00:32;;;;;;;4.35;1.35;;;;;;;15.67;100.00;100115.91;5228107;28;20547;-79
2021/05/10 06:03:03;;;;;;;1.08;0.88;;;;;;;15.61;100.00;100139.16;5228173;28;20059;-79
2021/05/10 06:05:33;;;;;;;2.10;0.90;;;;;;;15.59;100.00;100149.38;5228038;28;20017;-78
2021/05/10 06:08:04;;;;;;;1.35;1.20;;;;;;;15.43;100.00;100149.88;5227768;28;20470;-79
2021/05/10 06:10:34;;;;;;;2.47;1.20;;;;;;;15.31;100.00;100135.38;5227478;28;20496;-80
2021/05/10 06:13:05;;;;;;;3.20;1.30;;;;;;;15.26;100.00;100138.72;5226987;28;20120;-79
2021/05/10 06:15:35;;;;;;;1.67;1.00;;;;;;;15.19;100.00;100143.31;5227998;28;20032;-79
2021/05/10 06:18:08;;;;;;;3.63;1.10;;;;;;;15.21;100.00;100133.97;5227828;28;20563;-79
2021/05/10 06:20:38;;;;;;;2.17;1.40;;;;;;;15.29;100.00;100146.41;5227738;28;20037;-80
2021/05/10 06:23:09;;;;;;;1.75;1.13;;;;;;;15.34;100.00;100165.50;5227817;28;20094;-79
2021/05/10 06:25:39;;;;;;;1.90;1.00;;;;;;;15.41;100.00;100187.94;5228656;28;20058;-79
2021/05/10 06:28:10;;;;;;;2.50;1.20;;;;;;;15.40;100.00;100180.84;5230412;28;20032;-81
2021/05/10 06:30:40;;;;;;;3.15;1.30;;;;;;;15.41;100.00;100193.34;5228264;28;20028;-80
2021/05/10 06:33:11;;;;;;;3.90;1.60;;;;;;;15.37;100.00;100200.22;5230374;28;20041;-79
2021/05/10 06:35:42;;;;;;;3.65;1.70;;;;;;;15.39;100.00;100205.41;5230744;28;20914;-80
2021/05/10 06:38:13;;;;;;;2.25;1.42;;;;;;;15.30;100.00;100215.59;5230050;28;20429;-79
2021/05/10 06:40:43;;;;;;;2.10;1.17;;;;;;;15.20;100.00;100207.94;5228966;28;20553;-79
2021/05/10 06:43:14;;;;;;;5.90;1.77;;;;;;;15.17;100.00;100218.38;5224578;28;20235;-79
2021/05/10 06:45:44;;;;;;;4.78;1.67;;;;;;;15.11;100.00;100227.28;5210076;28;20033;-78
2021/05/10 06:48:30;;;;;;;6.35;1.52;;;;;;;15.17;100.00;100221.91;5225924;28;20032;-80
2021/05/10 06:51:01;;;;;;;1.85;1.05;;;;;;;15.18;100.00;100220.03;5226178;28;20078;-80
2021/05/10 06:53:31;;;;;;;4.72;1.80;;;;;;;15.21;100.00;100230.38;5226302;28;20111;-79
2021/05/10 06:56:02;;;;;;;3.60;1.85;;;;;;;15.18;100.00;100226.25;5227991;28;20500;-81
2021/05/10 06:58:32;;;;;;;3.33;1.70;;;;;;;15.16;100.00;100241.84;5221414;28;20025;-79
2021/05/10 07:01:03;;;;;;;4.68;1.50;;;;;;;15.11;100.00;100243.50;5226568;28;20052;-81
2021/05/10 07:03:33;;;;;;;3.47;1.50;;;;;;;15.21;100.00;100249.28;5228821;28;20052;-80
2021/05/10 07:06:04;;;;;;;2.95;1.52;;;;;;;15.27;100.00;100251.19;5228509;28;20032;-80
2021/05/10 07:08:35;;;;;;;3.28;1.73;;;;;;;15.57;100.00;100265.03;5227355;28;20039;-79
2021/05/10 07:11:05;;;;;;;2.22;1.45;;;;;;;15.82;100.00;100280.56;5227207;28;20156;-79
2021/05/10 07:13:36;;;;;;;1.85;1.20;;;;;;;16.09;100.00;100273.16;5226795;28;20033;-84
2021/05/10 07:16:07;;;;;;;3.38;1.77;;;;;;;16.16;100.00;100266.66;5226643;28;20025;-79
2021/05/10 07:18:38;;;;;;;4.57;1.35;;;;;;;16.14;100.00;100267.94;5225433;28;20025;-80
2021/05/10 07:21:09;;;;;;;2.92;1.55;;;;;;;16.11;100.00;100280.00;5226198;28;20075;-80
2021/05/10 07:23:39;;;;;;;1.88;1.38;;;;;;;16.24;100.00;100290.75;5227675;28;20074;-80
2021/05/10 07:26:10;;;;;;;4.03;1.35;;;;;;;16.18;100.00;100278.09;5227494;28;20457;-79
2021/05/10 07:28:40;;;;;;;3.45;1.40;;;;;;;16.13;100.00;100306.88;5227213;28;20036;-81
2021/05/10 07:31:11;;;;;;;1.73;1.15;;;;;;;16.07;100.00;100316.69;5228312;28;20027;-80
2021/05/10 07:33:41;;;;;;;2.70;1.58;;;;;;;15.98;100.00;100307.13;5227673;28;20025;-81
2021/05/10 07:36:12;;;;;;;1.77;1.40;;;;;;;16.02;100.00;100294.84;5227830;28;20107;-80
2021/05/10 07:38:43;;;;;;;2.40;1.38;;;;;;;16.20;100.00;100305.78;5228006;28;20028;-80
2021/05/10 07:41:13;;;;;;;2.35;1.40;;;;;;;16.32;100.00;100297.81;5225095;28;20678;-79
2021/05/10 07:43:43;;;;;;;4.03;1.52;;;;;;;16.34;100.00;100289.47;5228399;28;20043;-81
2021/05/10 07:46:14;;;;;;;3.80;1.50;;;;;;;16.40;100.00;100305.66;5227319;28;20032;-80
2021/05/10 07:48:45;;;;;;;6.03;1.80;;;;;;;16.26;100.00;100337.38;5225878;28;20060;-81
2021/05/10 07:51:15;;;;;;;2.42;1.38;;;;;;;16.25;100.00;100343.00;5216929;28;20051;-80
2021/05/10 07:53:45;;;;;;;3.10;1.38;;;;;;;16.26;100.00;100334.66;5227502;28;20064;-80
2021/05/10 07:56:17;;;;;;;4.35;1.77;;;;;;;16.13;100.00;100342.88;5225932;28;20056;-79
2021/05/10 07:58:48;;;;;;;4.72;1.83;;;;;;;15.99;100.00;100342.09;5225638;28;20108;-79
2021/05/10 08:01:18;;;;;;;3.72;1.98;;;;;;;15.91;100.00;100350.41;5224532;28;20104;-80
2021/05/10 08:03:49;;;;;;;4.75;1.98;;;;;;;15.86;100.00;100352.09;5225654;28;20033;-80
2021/05/10 08:06:19;;;;;;;4.85;2.05;;;;;;;15.81;100.00;100350.03;5225576;28;20028;-79
2021/05/10 08:08:52;;;;;;;3.78;2.03;;;;;;;15.86;100.00;100352.09;5225155;28;20557;-80
2021/05/10 08:11:22;;;;;;;6.32;2.10;;;;;;;15.83;100.00;100347.97;5226677;28;20056;-79
2021/05/10 08:13:52;;;;;;;6.07;2.20;;;;;;;15.87;100.00;100349.22;5224913;28;20114;-79
2021/05/10 08:16:23;;;;;;;6.22;2.38;;;;;;;15.97;100.00;100346.06;5224907;28;20036;-80
2021/05/10 08:18:53;;;;;;;4.78;2.03;;;;;;;16.10;100.00;100346.00;5226040;28;20029;-82
2021/05/10 08:21:24;;;;;;;4.82;2.35;;;;;;;16.22;100.00;100347.00;5223867;28;20052;-82
2021/05/10 08:23:54;;;;;;;5.43;2.33;;;;;;;16.28;100.00;100350.72;5225098;28;20033;-82
2021/05/10 08:26:25;;;;;;;4.20;1.60;;;;;;;16.29;100.00;100355.91;5208206;28;20021;-79
2021/05/10 08:28:55;;;;;;;7.82;2.45;;;;;;;16.23;100.00;100361.34;5227855;28;20544;-79
2021/05/10 08:31:26;;;;;;;9.00;2.50;;;;;;;16.16;100.00;100376.78;5222318;28;20043;-78
2021/05/10 08:33:56;;;;;;;7.32;2.78;;;;;;;16.05;100.00;100375.56;5223704;28;20079;-78
2021/05/10 08:36:27;;;;;;;5.78;2.60;;;;;;;16.05;100.00;100372.84;5223747;28;20104;-79
2021/05/10 08:38:57;;;;;;;9.48;2.72;;;;;;;16.11;100.00;100382.00;5223619;28;20552;-78
2021/05/10 08:41:27;;;;;;;5.35;2.20;;;;;;;16.12;100.00;100392.63;5223523;28;20532;-79
2021/05/10 08:43:58;;;;;;;5.00;2.10;;;;;;;16.11;100.00;100399.06;5226959;28;20570;-78
2021/05/10 08:46:29;;;;;;;5.30;2.08;;;;;;;16.23;100.00;100391.94;5226257;28;20040;-79
2021/05/10 08:49:00;;;;;;;4.25;2.15;;;;;;;16.42;100.00;100394.81;5223597;28;20033;-79
2021/05/10 08:51:33;;;;;;;4.72;2.40;;;;;;;16.46;100.00;100402.25;5223221;28;20037;-79
2021/05/10 08:54:21;;;;;;;5.05;2.35;;;;;;;16.63;100.00;100393.66;5224475;28;20024;-78
2021/05/10 08:56:54;;;;;;;5.97;2.40;;;;;;;16.86;100.00;100402.06;5223919;28;20035;-79
2021/05/10 08:59:25;;;;;;;4.18;2.28;;;;;;;17.09;100.00;100407.75;5209949;28;20036;-80
2021/05/10 09:01:58;;;;;;;7.28;2.85;;;;;;;17.29;100.00;100402.19;5223158;28;20025;-79
2021/05/10 09:04:37;;;;;;;3.72;2.10;;;;;;;17.28;100.00;100408.66;5225371;28;20033;-80
2021/05/10 09:07:18;;;;;;;5.60;2.70;;;;;;;17.30;100.00;100414.66;5225137;28;20021;-80
2021/05/10 09:09:58;;;;;;;6.65;2.35;;;;;;;17.41;100.00;100415.00;5224741;28;20483;-79
2021/05/10 09:12:45;;;;;;;5.82;2.58;;;;;;;17.49;100.00;100428.31;5212446;28;20021;-79
2021/05/10 09:15:17;;;;;;;7.78;2.47;;;;;;;17.58;100.00;100421.53;5205335;28;20037;-79
2021/05/10 09:17:51;;;;;;;5.72;1.92;;;;;;;17.55;100.00;100428.22;5207453;28;20025;-79
2021/05/10 09:20:24;;;;;;;8.07;2.67;;;;;;;17.47;100.00;100436.66;5223973;28;20393;-79
2021/05/10 09:22:58;;;;;;;7.32;2.97;;;;;;;17.30;100.00;100441.78;5225752;28;20025;-80
2021/05/10 09:25:31;;;;;;;7.80;2.85;;;;;;;17.50;100.00;100444.34;5224368;28;20479;-80
2021/05/10 09:28:08;;;;;;;7.13;2.10;;;;;;;17.55;100.00;100447.22;5207477;28;20088;-80
2021/05/10 09:30:41;;;;;;;5.93;2.75;;;;;;;17.57;100.00;100441.56;5224114;28;20116;-80
2021/05/10 09:33:23;;;;;;;9.10;3.10;;;;;;;17.82;100.00;100453.28;5227293;28;20083;-80
2021/05/10 09:35:57;;;;;;;5.35;2.08;;;;;;;17.77;100.00;100455.84;5229791;28;20029;-79
2021/05/10 09:38:29;;;;;;;5.20;2.58;;;;;;;17.82;100.00;100472.28;5229392;28;20096;-80
2021/05/10 09:41:02;;;;;;;6.53;2.35;;;;;;;17.82;100.00;100488.56;5229462;28;20033;-80
2021/05/10 09:43:35;;;;;;;6.90;2.47;;;;;;;17.84;100.00;100483.72;5211416;28;20108;-81
2021/05/10 09:46:08;;;;;;;9.25;2.78;;;;;;;17.95;100.00;100490.31;5228387;28;20044;-79
2021/05/10 09:48:40;;;;;;;5.05;2.20;;;;;;;18.10;100.00;100482.63;5211123;28;20104;-80
2021/05/10 09:51:14;;;;;;;7.20;2.28;;;;;;;18.26;100.00;100489.34;5228960;28;20028;-80
2021/05/10 09:53:48;;;;;;;5.57;2.10;;;;;;;18.25;100.00;100493.13;5228940;28;20033;-79
2021/05/10 09:56:26;;;;;;;6.43;1.75;;;;;;;18.26;100.00;100511.06;5229320;28;20029;-80
2021/05/10 09:58:58;;;;;;;5.97;1.95;;;;;;;17.94;100.00;100504.09;5225365;28;20040;-80
2021/05/10 10:01:47;;;;;;;9.98;2.28;;;;;;;18.13;100.00;100500.38;5228222;28;20033;-78
2021/05/10 10:04:19;;;;;;;4.88;2.13;;;;;;;18.05;100.00;100489.78;5216429;28;20021;-79
2021/05/10 10:06:50;;;;;;;9.18;2.03;;;;;;;18.32;100.00;100493.06;5226757;28;20027;-79
2021/05/10 10:09:22;;;;;;;6.80;2.05;;;;;;;18.47;100.00;100493.50;5233707;28;20036;-78
2021/05/10 10:11:53;;;;;;;6.18;1.90;;;;;;;18.69;100.00;100506.69;5226350;28;20029;-78
2021/05/10 10:14:24;;;;;;;5.72;1.95;;;;;;;19.00;100.00;100511.91;5225817;28;21219;-78
2021/05/10 10:16:54;;;;;;;5.03;1.63;;;;;;;19.03;100.00;100499.75;5226147;28;20032;-79
2021/05/10 10:19:25;;;;;;;6.10;2.10;;;;;;;19.28;100.00;100505.06;5228720;28;20079;-80
2021/05/10 10:21:55;;;;;;;6.35;2.05;;;;;;;19.61;100.00;100510.00;5227271;28;20108;-78
2021/05/10 10:24:27;;;;;;;7.68;2.17;;;;;;;19.71;99.08;100496.63;5225727;28;20048;-78
2021/05/10 10:26:59;;;;;;;8.68;2.33;;;;;;;20.03;96.22;100510.75;5226171;28;20025;-80
2021/05/10 10:29:31;;;;;;;4.43;1.70;;;;;;;20.14;96.39;100515.38;5227218;28;20029;-80
2021/05/10 10:32:02;;;;;;;3.80;1.70;;;;;;;20.12;83.23;100503.88;5227765;28;20035;-79
2021/05/10 10:34:35;;;;;;;5.85;1.60;;;;;;;20.45;77.06;100505.16;5226888;28;20067;-79
2021/05/10 10:37:07;;;;;;;11.32;1.75;;;;;;;20.51;74.00;100500.66;5228866;28;20540;-79
2021/05/10 10:39:49;;;;;;;6.43;1.40;;;;;;;20.33;69.10;100504.31;5226763;28;20036;-80
2021/05/10 10:42:30;;;;;;;6.13;1.42;;;;;;;19.88;67.66;100513.94;5228635;28;20100;-81
2021/05/10 10:45:02;;;;;;;9.23;2.20;;;;;;;19.83;69.50;100535.59;5213054;28;20486;-79
2021/05/10 10:47:36;;;;;;;4.38;1.70;;;;;;;19.33;73.51;100535.09;5227621;28;20478;-79
2021/05/10 10:50:07;;;;;;;5.90;1.35;;;;;;;18.85;71.06;100522.34;5226654;28;20029;-79
2021/05/10 10:52:50;;;;;;;5.20;1.58;;;;;;;18.53;73.61;100541.50;5226452;28;20018;-80
2021/05/10 10:55:24;;;;;;;10.50;1.70;;;;;;;18.21;77.51;100554.34;5225867;28;20037;-79
2021/05/10 10:58:14;;;;;;;6.90;1.52;;;;;;;17.95;84.09;100557.31;5220638;28;20060;-80
2021/05/10 11:01:07;;;;;;;11.55;2.10;;;;;;;17.56;90.00;100567.38;5227708;28;20039;-80
2021/05/10 11:03:37;;;;;;;7.32;2.05;;;;;;;17.67;98.29;100563.13;5230670;28;20017;-82
2021/05/10 11:06:08;;;;;;;8.13;1.90;;;;;;;17.96;98.73;100558.97;5230467;28;20033;-79
2021/05/10 11:08:39;;;;;;;5.47;1.77;;;;;;;18.50;100.00;100554.72;5227683;28;20036;-79
2021/05/10 11:11:10;;;;;;;8.65;2.40;;;;;;;18.88;100.00;100549.91;5225600;28;20033;-79
2021/05/10 11:13:42;;;;;;;6.40;2.10;;;;;;;19.44;99.21;100547.91;5225194;28;20025;-79
2021/05/10 11:16:14;;;;;;;6.00;2.05;;;;;;;19.99;97.09;100553.13;5225327;28;20031;-79
2021/05/10 11:21:23;;;;;;;5.68;2.08;;;;;;;20.04;74.33;100566.03;5225124;28;20025;-79
2021/05/10 11:23:56;;;;;;;5.88;2.20;;;;;;;20.01;76.91;100567.34;5228361;28;20032;-80
2021/05/10 11:26:45;;;;;;;5.65;2.00;;;;;;;19.95;80.49;100587.34;5209180;28;20076;-80
2021/05/10 11:29:25;;;;;;;8.00;2.70;;;;;;;20.04;83.16;100576.94;5226711;28;20021;-79
2021/05/10 11:31:57;;;;;;;5.22;2.25;;;;;;;20.30;78.95;100583.81;5214494;28;20391;-79
2021/05/10 11:34:32;;;;;;;5.20;1.90;;;;;;;20.09;70.00;100591.50;5212528;28;20028;-79
2021/05/10 11:37:08;;;;;;;7.47;2.10;;;;;;;19.67;68.74;100593.41;5226394;28;20505;-79
2021/05/10 11:39:41;;;;;;;5.38;2.03;;;;;;;19.55;70.48;100604.22;5224949;28;20482;-80
2021/05/10 11:42:12;;;;;;;6.22;1.80;;;;;;;20.04;83.39;100601.44;5225350;28;20371;-79
2021/05/10 11:44:45;;;;;;;4.90;1.42;;;;;;;20.18;71.58;100602.84;5225386;28;20037;-79
2021/05/10 11:47:16;;;;;;;8.60;2.10;;;;;;;20.03;68.82;100610.66;5225523;28;20481;-79
2021/05/10 11:49:50;;;;;;;4.45;2.10;;;;;;;19.98;70.67;100610.53;5224186;28;20033;-79